sensor_id;sensor_type;location;lat;lon;timestamp;pressure;altitude;pressure_sealevel;temperature;humidity
75745;BME280;64359;51.366;-0.222;2023-02-01T00:00:22;102197.21;;;21.81;44.90
75745;BME280;64359;51.366;-0.222;2023-02-01T00:01:27;102201.25;;;21.81;45.06
75745;BME280;64359;51.366;-0.222;2023-02-01T00:02:31;102200.03;;;21.82;44.96
75745;BME280;64359;51.366;-0.222;2023-02-01T00:03:35;102203.89;;;21.81;44.89
75745;BME280;64359;51.366;-0.222;2023-02-01T00:04:40;102206.98;;;21.81;44.90
75745;BME280;64359;51.366;-0.222;2023-02-01T00:05:44;102207.40;;;21.82;44.96
75745;BME280;64359;51.366;-0.222;2023-02-01T00:06:48;102202.82;;;21.83;44.88
75745;BME280;64359;51.366;-0.222;2023-02-01T00:07:53;102200.20;;;21.82;44.90
75745;BME280;64359;51.366;-0.222;2023-02-01T00:08:57;102193.87;;;21.78;44.83
75745;BME280;64359;51.366;-0.222;2023-02-01T00:10:02;102205.19;;;21.81;44.89
75745;BME280;64359;51.366;-0.222;2023-02-01T00:11:09;102215.57;;;21.82;44.78
75745;BME280;64359;51.366;-0.222;2023-02-01T00:12:13;102219.60;;;21.81;44.82
75745;BME280;64359;51.366;-0.222;2023-02-01T00:13:18;102226.41;;;21.82;44.85
75745;BME280;64359;51.366;-0.222;2023-02-01T00:14:22;102218.83;;;21.82;44.89
75745;BME280;64359;51.366;-0.222;2023-02-01T00:15:27;102218.35;;;21.81;44.89
75745;BME280;64359;51.366;-0.222;2023-02-01T00:16:31;102214.38;;;21.81;44.82
75745;BME280;64359;51.366;-0.222;2023-02-01T00:17:36;102214.14;;;21.82;44.79
75745;BME280;64359;51.366;-0.222;2023-02-01T00:18:41;102218.72;;;21.81;44.82
75745;BME280;64359;51.366;-0.222;2023-02-01T00:19:46;102218.38;;;21.81;44.77
75745;BME280;64359;51.366;-0.222;2023-02-01T00:20:50;102217.05;;;21.81;44.75
75745;BME280;64359;51.366;-0.222;2023-02-01T00:21:54;102214.17;;;21.81;44.83
75745;BME280;64359;51.366;-0.222;2023-02-01T00:22:59;102207.29;;;21.81;44.73
75745;BME280;64359;51.366;-0.222;2023-02-01T00:24:05;102203.64;;;21.82;44.80
75745;BME280;64359;51.366;-0.222;2023-02-01T00:25:10;102209.77;;;21.84;44.70
75745;BME280;64359;51.366;-0.222;2023-02-01T00:26:15;102212.83;;;21.84;44.79
75745;BME280;64359;51.366;-0.222;2023-02-01T00:27:21;102214.00;;;21.83;44.70
75745;BME280;64359;51.366;-0.222;2023-02-01T00:28:25;102214.96;;;21.84;44.65
75745;BME280;64359;51.366;-0.222;2023-02-01T00:29:29;102212.97;;;21.84;44.67
75745;BME280;64359;51.366;-0.222;2023-02-01T00:30:34;102212.73;;;21.83;44.60
75745;BME280;64359;51.366;-0.222;2023-02-01T00:31:38;102212.21;;;21.83;44.73
75745;BME280;64359;51.366;-0.222;2023-02-01T00:32:43;102211.48;;;21.83;44.70
75745;BME280;64359;51.366;-0.222;2023-02-01T00:33:49;102207.58;;;21.84;44.53
75745;BME280;64359;51.366;-0.222;2023-02-01T00:34:54;102210.83;;;21.84;44.66
75745;BME280;64359;51.366;-0.222;2023-02-01T00:35:59;102215.52;;;21.84;44.67
75745;BME280;64359;51.366;-0.222;2023-02-01T00:37:04;102213.68;;;21.85;44.51
75745;BME280;64359;51.366;-0.222;2023-02-01T00:38:08;102210.75;;;21.83;44.63
75745;BME280;64359;51.366;-0.222;2023-02-01T00:39:12;102207.03;;;21.84;44.58
75745;BME280;64359;51.366;-0.222;2023-02-01T00:40:17;102205.85;;;21.85;44.60
75745;BME280;64359;51.366;-0.222;2023-02-01T00:41:22;102204.09;;;21.85;44.55
75745;BME280;64359;51.366;-0.222;2023-02-01T00:42:26;102196.71;;;21.87;44.44
75745;BME280;64359;51.366;-0.222;2023-02-01T00:43:31;102197.45;;;21.87;44.39
75745;BME280;64359;51.366;-0.222;2023-02-01T00:44:36;102187.76;;;21.88;44.52
75745;BME280;64359;51.366;-0.222;2023-02-01T00:45:40;102180.59;;;21.87;44.37
75745;BME280;64359;51.366;-0.222;2023-02-01T00:46:45;102178.30;;;21.89;44.31
75745;BME280;64359;51.366;-0.222;2023-02-01T00:47:49;102167.76;;;21.84;44.37
75745;BME280;64359;51.366;-0.222;2023-02-01T00:48:53;102170.29;;;21.88;44.28
75745;BME280;64359;51.366;-0.222;2023-02-01T00:49:58;102171.20;;;21.86;44.30
75745;BME280;64359;51.366;-0.222;2023-02-01T00:51:03;102161.70;;;21.83;44.35
75745;BME280;64359;51.366;-0.222;2023-02-01T00:52:08;102162.33;;;21.82;44.30
75745;BME280;64359;51.366;-0.222;2023-02-01T00:53:12;102160.16;;;21.82;44.28
75745;BME280;64359;51.366;-0.222;2023-02-01T00:54:16;102163.30;;;21.82;44.33
75745;BME280;64359;51.366;-0.222;2023-02-01T00:55:21;102157.91;;;21.80;44.39
75745;BME280;64359;51.366;-0.222;2023-02-01T00:56:25;102160.42;;;21.80;44.49
75745;BME280;64359;51.366;-0.222;2023-02-01T00:57:31;102161.84;;;21.79;44.32
75745;BME280;64359;51.366;-0.222;2023-02-01T00:58:36;102167.48;;;21.78;44.46
75745;BME280;64359;51.366;-0.222;2023-02-01T00:59:40;102159.44;;;21.74;44.50
75745;BME280;64359;51.366;-0.222;2023-02-01T01:00:45;102164.59;;;21.76;44.44
75745;BME280;64359;51.366;-0.222;2023-02-01T01:01:49;102158.43;;;21.75;44.56
75745;BME280;64359;51.366;-0.222;2023-02-01T01:02:53;102152.62;;;21.71;44.48
75745;BME280;64359;51.366;-0.222;2023-02-01T01:03:59;102152.14;;;21.71;44.48
75745;BME280;64359;51.366;-0.222;2023-02-01T01:05:05;102161.89;;;21.76;44.53
75745;BME280;64359;51.366;-0.222;2023-02-01T01:06:11;102158.09;;;21.76;44.43
75745;BME280;64359;51.366;-0.222;2023-02-01T01:07:16;102158.34;;;21.78;44.34
75745;BME280;64359;51.366;-0.222;2023-02-01T01:08:21;102153.54;;;21.76;44.44
75745;BME280;64359;51.366;-0.222;2023-02-01T01:09:25;102158.56;;;21.77;44.39
75745;BME280;64359;51.366;-0.222;2023-02-01T01:10:29;102164.98;;;21.76;44.48
75745;BME280;64359;51.366;-0.222;2023-02-01T01:11:36;102162.48;;;21.75;44.41
75745;BME280;64359;51.366;-0.222;2023-02-01T01:12:41;102160.97;;;21.74;44.42
75745;BME280;64359;51.366;-0.222;2023-02-01T01:13:47;102161.31;;;21.74;44.47
75745;BME280;64359;51.366;-0.222;2023-02-01T01:14:52;102164.36;;;21.75;44.44
75745;BME280;64359;51.366;-0.222;2023-02-01T01:15:56;102164.13;;;21.75;44.42
75745;BME280;64359;51.366;-0.222;2023-02-01T01:17:05;102164.02;;;21.75;44.34
75745;BME280;64359;51.366;-0.222;2023-02-01T01:18:10;102162.36;;;21.73;44.47
75745;BME280;64359;51.366;-0.222;2023-02-01T01:19:14;102154.91;;;21.68;44.44
75745;BME280;64359;51.366;-0.222;2023-02-01T01:20:19;102160.63;;;21.74;44.46
75745;BME280;64359;51.366;-0.222;2023-02-01T01:21:25;102163.72;;;21.74;44.39
75745;BME280;64359;51.366;-0.222;2023-02-01T01:22:30;102154.54;;;21.69;44.49
75745;BME280;64359;51.366;-0.222;2023-02-01T01:23:35;102160.36;;;21.73;44.45
75745;BME280;64359;51.366;-0.222;2023-02-01T01:24:39;102159.81;;;21.73;44.44
75745;BME280;64359;51.366;-0.222;2023-02-01T01:25:44;102157.11;;;21.73;44.45
75745;BME280;64359;51.366;-0.222;2023-02-01T01:26:48;102158.70;;;21.74;44.38
75745;BME280;64359;51.366;-0.222;2023-02-01T01:27:52;102155.55;;;21.74;44.39
75745;BME280;64359;51.366;-0.222;2023-02-01T01:28:58;102156.77;;;21.75;44.42
75745;BME280;64359;51.366;-0.222;2023-02-01T01:30:02;102148.33;;;21.74;44.42
75745;BME280;64359;51.366;-0.222;2023-02-01T01:31:09;102147.79;;;21.74;44.28
75745;BME280;64359;51.366;-0.222;2023-02-01T01:32:13;102148.13;;;21.74;44.33
75745;BME280;64359;51.366;-0.222;2023-02-01T01:33:18;102151.89;;;21.75;44.34
75745;BME280;64359;51.366;-0.222;2023-02-01T01:34:22;102151.73;;;21.75;44.36
75745;BME280;64359;51.366;-0.222;2023-02-01T01:35:26;102150.91;;;21.75;44.34
75745;BME280;64359;51.366;-0.222;2023-02-01T01:36:32;102150.80;;;21.77;44.36
75745;BME280;64359;51.366;-0.222;2023-02-01T01:37:37;102148.50;;;21.76;44.30
75745;BME280;64359;51.366;-0.222;2023-02-01T01:38:42;102147.59;;;21.76;44.27
75745;BME280;64359;51.366;-0.222;2023-02-01T01:39:46;102143.05;;;21.76;44.22
75745;BME280;64359;51.366;-0.222;2023-02-01T01:40:51;102143.89;;;21.77;44.31
75745;BME280;64359;51.366;-0.222;2023-02-01T01:41:55;102146.16;;;21.76;44.33
75745;BME280;64359;51.366;-0.222;2023-02-01T01:43:00;102148.34;;;21.76;44.35
75745;BME280;64359;51.366;-0.222;2023-02-01T01:44:06;102144.14;;;21.76;44.26
75745;BME280;64359;51.366;-0.222;2023-02-01T01:45:21;102140.46;;;21.75;44.37
75745;BME280;64359;51.366;-0.222;2023-02-01T01:46:28;102142.95;;;21.76;44.38
75745;BME280;64359;51.366;-0.222;2023-02-01T01:47:37;102147.48;;;21.75;44.23
75745;BME280;64359;51.366;-0.222;2023-02-01T01:48:43;102143.27;;;21.76;44.17
75745;BME280;64359;51.366;-0.222;2023-02-01T01:49:48;102141.41;;;21.75;44.27
75745;BME280;64359;51.366;-0.222;2023-02-01T01:50:56;102140.19;;;21.74;44.17
75745;BME280;64359;51.366;-0.222;2023-02-01T01:52:04;102141.04;;;21.75;44.30
75745;BME280;64359;51.366;-0.222;2023-02-01T01:53:11;102142.11;;;21.77;44.22
75745;BME280;64359;51.366;-0.222;2023-02-01T01:54:18;102144.71;;;21.78;44.21
75745;BME280;64359;51.366;-0.222;2023-02-01T01:55:26;102144.04;;;21.79;44.20
75745;BME280;64359;51.366;-0.222;2023-02-01T01:56:33;102139.63;;;21.80;44.15
75745;BME280;64359;51.366;-0.222;2023-02-01T01:57:42;102144.31;;;21.80;44.03
75745;BME280;64359;51.366;-0.222;2023-02-01T01:58:47;102143.98;;;21.80;44.11
75745;BME280;64359;51.366;-0.222;2023-02-01T01:59:57;102148.09;;;21.82;44.05
75745;BME280;64359;51.366;-0.222;2023-02-01T02:01:04;102150.80;;;21.82;44.06
75745;BME280;64359;51.366;-0.222;2023-02-01T02:02:09;102148.80;;;21.82;44.07
75745;BME280;64359;51.366;-0.222;2023-02-01T02:03:17;102147.92;;;21.84;44.00
75745;BME280;64359;51.366;-0.222;2023-02-01T02:04:22;102144.70;;;21.85;43.99
75745;BME280;64359;51.366;-0.222;2023-02-01T02:05:27;102143.93;;;21.85;43.91
75745;BME280;64359;51.366;-0.222;2023-02-01T02:06:40;102140.81;;;21.86;43.84
75745;BME280;64359;51.366;-0.222;2023-02-01T02:07:50;102140.95;;;21.86;43.90
75745;BME280;64359;51.366;-0.222;2023-02-01T02:08:55;102140.27;;;21.86;43.82
75745;BME280;64359;51.366;-0.222;2023-02-01T02:10:00;102135.44;;;21.83;43.87
75745;BME280;64359;51.366;-0.222;2023-02-01T02:11:04;102139.61;;;21.87;43.87
75745;BME280;64359;51.366;-0.222;2023-02-01T02:12:09;102140.01;;;21.87;43.85
75745;BME280;64359;51.366;-0.222;2023-02-01T02:13:14;102138.00;;;21.88;43.76
75745;BME280;64359;51.366;-0.222;2023-02-01T02:14:22;102133.70;;;21.88;43.79
75745;BME280;64359;51.366;-0.222;2023-02-01T02:15:27;102139.30;;;21.90;43.76
75745;BME280;64359;51.366;-0.222;2023-02-01T02:16:56;102133.86;;;21.86;43.71
75745;BME280;64359;51.366;-0.222;2023-02-01T02:18:09;102141.44;;;21.90;43.69
75745;BME280;64359;51.366;-0.222;2023-02-01T02:19:44;102143.08;;;21.90;43.76
75745;BME280;64359;51.366;-0.222;2023-02-01T02:21:14;102135.50;;;21.88;43.69
75745;BME280;64359;51.366;-0.222;2023-02-01T02:22:46;102140.17;;;21.88;43.80
75745;BME280;64359;51.366;-0.222;2023-02-01T02:24:09;102138.89;;;21.87;43.70
75745;BME280;64359;51.366;-0.222;2023-02-01T02:25:54;102132.75;;;21.87;43.78
75745;BME280;64359;51.366;-0.222;2023-02-01T02:27:22;102131.17;;;21.85;43.78
75745;BME280;64359;51.366;-0.222;2023-02-01T02:28:46;102129.34;;;21.85;43.79
75745;BME280;64359;51.366;-0.222;2023-02-01T02:30:19;102124.70;;;21.84;43.79
75745;BME280;64359;51.366;-0.222;2023-02-01T02:31:42;102122.08;;;21.83;43.82
75745;BME280;64359;51.366;-0.222;2023-02-01T02:33:20;102127.95;;;21.83;43.76
75745;BME280;64359;51.366;-0.222;2023-02-01T02:34:30;102127.40;;;21.81;43.85
75745;BME280;64359;51.366;-0.222;2023-02-01T02:35:44;102125.98;;;21.82;43.86
75745;BME280;64359;51.366;-0.222;2023-02-01T02:36:59;102127.67;;;21.82;43.84
75745;BME280;64359;51.366;-0.222;2023-02-01T02:38:15;102127.10;;;21.84;43.75
75745;BME280;64359;51.366;-0.222;2023-02-01T02:39:27;102123.00;;;21.85;43.73
75745;BME280;64359;51.366;-0.222;2023-02-01T02:40:45;102113.98;;;21.83;43.78
75745;BME280;64359;51.366;-0.222;2023-02-01T02:41:59;102117.41;;;21.83;43.77
75745;BME280;64359;51.366;-0.222;2023-02-01T02:43:24;102117.27;;;21.83;43.81
75745;BME280;64359;51.366;-0.222;2023-02-01T02:44:57;102122.73;;;21.84;43.79
75745;BME280;64359;51.366;-0.222;2023-02-01T02:46:24;102115.80;;;21.83;43.70
75745;BME280;64359;51.366;-0.222;2023-02-01T02:47:53;102114.59;;;21.82;43.72
75745;BME280;64359;51.366;-0.222;2023-02-01T02:49:04;102110.38;;;21.81;43.73
75745;BME280;64359;51.366;-0.222;2023-02-01T02:50:17;102111.49;;;21.82;43.83
75745;BME280;64359;51.366;-0.222;2023-02-01T02:51:46;102105.33;;;21.81;43.67
75745;BME280;64359;51.366;-0.222;2023-02-01T02:53:15;102107.66;;;21.81;43.74
75745;BME280;64359;51.366;-0.222;2023-02-01T02:54:41;102107.39;;;21.82;43.73
75745;BME280;64359;51.366;-0.222;2023-02-01T02:55:52;102106.65;;;21.82;43.74
75745;BME280;64359;51.366;-0.222;2023-02-01T02:57:16;102102.11;;;21.82;43.77
75745;BME280;64359;51.366;-0.222;2023-02-01T02:58:39;102102.18;;;21.83;43.60
75745;BME280;64359;51.366;-0.222;2023-02-01T03:00:04;102104.75;;;21.83;43.68
75745;BME280;64359;51.366;-0.222;2023-02-01T03:01:27;102102.69;;;21.82;43.63
75745;BME280;64359;51.366;-0.222;2023-02-01T03:02:49;102105.49;;;21.81;43.66
75745;BME280;64359;51.366;-0.222;2023-02-01T03:04:12;102102.34;;;21.82;43.60
75745;BME280;64359;51.366;-0.222;2023-02-01T03:05:20;102107.46;;;21.81;43.64
75745;BME280;64359;51.366;-0.222;2023-02-01T03:06:25;102110.62;;;21.82;43.63
75745;BME280;64359;51.366;-0.222;2023-02-01T03:07:56;102108.69;;;21.83;43.59
75745;BME280;64359;51.366;-0.222;2023-02-01T03:09:06;102110.18;;;21.83;43.56
75745;BME280;64359;51.366;-0.222;2023-02-01T03:10:20;102108.28;;;21.84;43.55
75745;BME280;64359;51.366;-0.222;2023-02-01T03:11:27;102108.29;;;21.84;43.45
75745;BME280;64359;51.366;-0.222;2023-02-01T03:12:54;102109.95;;;21.84;43.53
75745;BME280;64359;51.366;-0.222;2023-02-01T03:14:03;102102.08;;;21.83;43.58
75745;BME280;64359;51.366;-0.222;2023-02-01T03:15:12;102099.89;;;21.81;43.59
75745;BME280;64359;51.366;-0.222;2023-02-01T03:16:20;102096.27;;;21.81;43.51
75745;BME280;64359;51.366;-0.222;2023-02-01T03:17:39;102096.08;;;21.81;43.54
75745;BME280;64359;51.366;-0.222;2023-02-01T03:18:50;102098.79;;;21.83;43.53
75745;BME280;64359;51.366;-0.222;2023-02-01T03:20:00;102092.58;;;21.82;43.51
75745;BME280;64359;51.366;-0.222;2023-02-01T03:21:08;102095.09;;;21.82;43.60
75745;BME280;64359;51.366;-0.222;2023-02-01T03:22:16;102087.63;;;21.83;43.49
75745;BME280;64359;51.366;-0.222;2023-02-01T03:23:25;102084.74;;;21.83;43.48
75745;BME280;64359;51.366;-0.222;2023-02-01T03:24:34;102081.62;;;21.83;43.39
75745;BME280;64359;51.366;-0.222;2023-02-01T03:25:42;102082.61;;;21.84;43.46
75745;BME280;64359;51.366;-0.222;2023-02-01T03:26:51;102079.87;;;21.84;43.43
75745;BME280;64359;51.366;-0.222;2023-02-01T03:28:00;102085.27;;;21.84;43.45
75745;BME280;64359;51.366;-0.222;2023-02-01T03:29:13;102087.84;;;21.85;43.36
75745;BME280;64359;51.366;-0.222;2023-02-01T03:30:22;102087.09;;;21.86;43.45
75745;BME280;64359;51.366;-0.222;2023-02-01T03:31:29;102081.85;;;21.88;43.35
75745;BME280;64359;51.366;-0.222;2023-02-01T03:32:34;102083.71;;;21.87;43.36
75745;BME280;64359;51.366;-0.222;2023-02-01T03:33:53;102080.92;;;21.86;43.29
75745;BME280;64359;51.366;-0.222;2023-02-01T03:34:57;102078.01;;;21.86;43.36
75745;BME280;64359;51.366;-0.222;2023-02-01T03:36:08;102080.63;;;21.87;43.26
75745;BME280;64359;51.366;-0.222;2023-02-01T03:37:19;102079.47;;;21.88;43.26
75745;BME280;64359;51.366;-0.222;2023-02-01T03:38:30;102082.12;;;21.88;43.28
75745;BME280;64359;51.366;-0.222;2023-02-01T03:39:39;102081.64;;;21.89;43.28
75745;BME280;64359;51.366;-0.222;2023-02-01T03:40:49;102082.84;;;21.90;43.24
75745;BME280;64359;51.366;-0.222;2023-02-01T03:41:57;102085.38;;;21.90;43.20
75745;BME280;64359;51.366;-0.222;2023-02-01T03:43:04;102085.81;;;21.89;43.17
75745;BME280;64359;51.366;-0.222;2023-02-01T03:44:13;102075.63;;;21.86;43.23
75745;BME280;64359;51.366;-0.222;2023-02-01T03:45:22;102081.62;;;21.91;43.19
75745;BME280;64359;51.366;-0.222;2023-02-01T03:46:32;102087.68;;;21.90;43.21
75745;BME280;64359;51.366;-0.222;2023-02-01T03:47:42;102088.70;;;21.91;43.20
75745;BME280;64359;51.366;-0.222;2023-02-01T03:48:49;102090.10;;;21.92;43.19
75745;BME280;64359;51.366;-0.222;2023-02-01T03:49:57;102091.90;;;21.92;43.08
75745;BME280;64359;51.366;-0.222;2023-02-01T03:51:05;102093.97;;;21.92;43.10
75745;BME280;64359;51.366;-0.222;2023-02-01T03:52:13;102094.41;;;21.94;43.08
75745;BME280;64359;51.366;-0.222;2023-02-01T03:53:21;102096.65;;;21.95;43.07
75745;BME280;64359;51.366;-0.222;2023-02-01T03:54:28;102100.04;;;21.93;43.05
75745;BME280;64359;51.366;-0.222;2023-02-01T03:55:34;102089.33;;;21.88;43.03
75745;BME280;64359;51.366;-0.222;2023-02-01T03:56:42;102104.08;;;21.93;43.06
75745;BME280;64359;51.366;-0.222;2023-02-01T03:57:53;102101.43;;;21.93;42.99
75745;BME280;64359;51.366;-0.222;2023-02-01T03:58:59;102104.89;;;21.93;43.03
75745;BME280;64359;51.366;-0.222;2023-02-01T04:00:08;102106.08;;;21.94;43.00
75745;BME280;64359;51.366;-0.222;2023-02-01T04:01:13;102105.06;;;21.93;43.05
75745;BME280;64359;51.366;-0.222;2023-02-01T04:02:17;102092.19;;;21.89;42.92
75745;BME280;64359;51.366;-0.222;2023-02-01T04:03:22;102104.76;;;21.95;42.95
75745;BME280;64359;51.366;-0.222;2023-02-01T04:04:26;102103.27;;;21.95;42.96
75745;BME280;64359;51.366;-0.222;2023-02-01T04:05:31;102105.07;;;21.97;42.90
75745;BME280;64359;51.366;-0.222;2023-02-01T04:06:35;102103.14;;;21.98;42.90
75745;BME280;64359;51.366;-0.222;2023-02-01T04:07:40;102103.52;;;21.99;42.89
75745;BME280;64359;51.366;-0.222;2023-02-01T04:08:45;102104.70;;;21.98;42.83
75745;BME280;64359;51.366;-0.222;2023-02-01T04:09:49;102105.05;;;21.99;42.81
75745;BME280;64359;51.366;-0.222;2023-02-01T04:10:53;102103.71;;;21.97;42.81
75745;BME280;64359;51.366;-0.222;2023-02-01T04:11:58;102104.39;;;21.98;42.81
75745;BME280;64359;51.366;-0.222;2023-02-01T04:13:02;102106.77;;;21.98;42.84
75745;BME280;64359;51.366;-0.222;2023-02-01T04:14:07;102106.43;;;21.98;42.73
75745;BME280;64359;51.366;-0.222;2023-02-01T04:15:11;102100.05;;;21.98;42.80
75745;BME280;64359;51.366;-0.222;2023-02-01T04:16:16;102101.48;;;21.96;42.75
75745;BME280;64359;51.366;-0.222;2023-02-01T04:17:20;102099.88;;;21.96;42.85
75745;BME280;64359;51.366;-0.222;2023-02-01T04:18:24;102096.73;;;21.97;42.92
75745;BME280;64359;51.366;-0.222;2023-02-01T04:19:29;102096.86;;;21.96;42.83
75745;BME280;64359;51.366;-0.222;2023-02-01T04:20:33;102098.29;;;21.96;42.85
75745;BME280;64359;51.366;-0.222;2023-02-01T04:21:38;102096.62;;;21.94;42.88
75745;BME280;64359;51.366;-0.222;2023-02-01T04:22:42;102099.71;;;21.94;42.84
75745;BME280;64359;51.366;-0.222;2023-02-01T04:23:47;102098.17;;;21.94;42.89
75745;BME280;64359;51.366;-0.222;2023-02-01T04:24:51;102086.42;;;21.90;42.76
75745;BME280;64359;51.366;-0.222;2023-02-01T04:26:00;102093.16;;;21.93;42.80
75745;BME280;64359;51.366;-0.222;2023-02-01T04:27:05;102093.46;;;21.94;42.85
75745;BME280;64359;51.366;-0.222;2023-02-01T04:28:09;102094.89;;;21.94;42.79
75745;BME280;64359;51.366;-0.222;2023-02-01T04:29:13;102093.13;;;21.95;42.81
75745;BME280;64359;51.366;-0.222;2023-02-01T04:30:18;102094.31;;;21.94;42.86
75745;BME280;64359;51.366;-0.222;2023-02-01T04:31:23;102095.27;;;21.94;42.87
75745;BME280;64359;51.366;-0.222;2023-02-01T04:32:29;102095.19;;;21.94;42.75
75745;BME280;64359;51.366;-0.222;2023-02-01T04:33:34;102096.28;;;21.96;42.76
75745;BME280;64359;51.366;-0.222;2023-02-01T04:34:38;102096.86;;;21.96;42.73
75745;BME280;64359;51.366;-0.222;2023-02-01T04:35:43;102096.08;;;21.96;42.69
75745;BME280;64359;51.366;-0.222;2023-02-01T04:36:47;102093.98;;;21.96;42.77
75745;BME280;64359;51.366;-0.222;2023-02-01T04:37:51;102094.96;;;21.95;42.68
75745;BME280;64359;51.366;-0.222;2023-02-01T04:38:56;102092.05;;;21.97;42.68
75745;BME280;64359;51.366;-0.222;2023-02-01T04:40:00;102092.73;;;21.95;42.75
75745;BME280;64359;51.366;-0.222;2023-02-01T04:41:06;102090.76;;;21.95;42.72
75745;BME280;64359;51.366;-0.222;2023-02-01T04:42:11;102092.35;;;21.97;42.76
75745;BME280;64359;51.366;-0.222;2023-02-01T04:43:15;102090.42;;;21.98;42.61
75745;BME280;64359;51.366;-0.222;2023-02-01T04:44:20;102093.83;;;21.99;42.62
75745;BME280;64359;51.366;-0.222;2023-02-01T04:45:24;102089.46;;;21.99;42.66
75745;BME280;64359;51.366;-0.222;2023-02-01T04:46:28;102091.08;;;21.99;42.68
75745;BME280;64359;51.366;-0.222;2023-02-01T04:47:33;102086.15;;;21.98;42.65
75745;BME280;64359;51.366;-0.222;2023-02-01T04:48:37;102085.95;;;21.98;42.69
75745;BME280;64359;51.366;-0.222;2023-02-01T04:49:42;102087.98;;;21.97;42.60
75745;BME280;64359;51.366;-0.222;2023-02-01T04:50:48;102088.61;;;21.97;42.58
75745;BME280;64359;51.366;-0.222;2023-02-01T04:51:52;102085.57;;;21.96;42.68
75745;BME280;64359;51.366;-0.222;2023-02-01T04:52:57;102084.08;;;21.95;42.60
75745;BME280;64359;51.366;-0.222;2023-02-01T04:54:01;102086.18;;;21.97;42.61
75745;BME280;64359;51.366;-0.222;2023-02-01T04:55:07;102086.79;;;21.97;42.57
75745;BME280;64359;51.366;-0.222;2023-02-01T04:56:12;102084.91;;;21.96;42.61
75745;BME280;64359;51.366;-0.222;2023-02-01T04:57:16;102082.45;;;21.97;42.52
75745;BME280;64359;51.366;-0.222;2023-02-01T04:58:20;102083.48;;;21.99;42.59
75745;BME280;64359;51.366;-0.222;2023-02-01T04:59:25;102082.28;;;22.00;42.53
75745;BME280;64359;51.366;-0.222;2023-02-01T05:00:29;102083.56;;;22.00;42.49
75745;BME280;64359;51.366;-0.222;2023-02-01T05:01:34;102086.25;;;21.98;42.56
75745;BME280;64359;51.366;-0.222;2023-02-01T05:02:38;102090.05;;;21.98;42.45
75745;BME280;64359;51.366;-0.222;2023-02-01T05:03:43;102093.23;;;21.98;42.53
75745;BME280;64359;51.366;-0.222;2023-02-01T05:04:47;102090.48;;;21.96;42.61
75745;BME280;64359;51.366;-0.222;2023-02-01T05:05:51;102095.84;;;21.98;42.49
75745;BME280;64359;51.366;-0.222;2023-02-01T05:06:56;102096.08;;;21.98;42.60
75745;BME280;64359;51.366;-0.222;2023-02-01T05:08:00;102089.66;;;21.94;42.50
75745;BME280;64359;51.366;-0.222;2023-02-01T05:09:05;102096.39;;;21.97;42.57
75745;BME280;64359;51.366;-0.222;2023-02-01T05:10:11;102101.44;;;21.95;42.65
75745;BME280;64359;51.366;-0.222;2023-02-01T05:11:15;102096.65;;;21.94;42.66
75745;BME280;64359;51.366;-0.222;2023-02-01T05:12:33;102100.69;;;21.95;42.52
75745;BME280;64359;51.366;-0.222;2023-02-01T05:14:03;102102.19;;;21.95;42.55
75745;BME280;64359;51.366;-0.222;2023-02-01T05:15:09;102108.45;;;21.95;42.60
75745;BME280;64359;51.366;-0.222;2023-02-01T05:16:14;102111.07;;;21.95;42.52
75745;BME280;64359;51.366;-0.222;2023-02-01T05:17:18;102106.76;;;21.95;42.52
75745;BME280;64359;51.366;-0.222;2023-02-01T05:18:23;102105.54;;;21.94;42.55
75745;BME280;64359;51.366;-0.222;2023-02-01T05:19:27;102106.52;;;21.95;42.56
75745;BME280;64359;51.366;-0.222;2023-02-01T05:20:32;102109.61;;;21.95;42.50
75745;BME280;64359;51.366;-0.222;2023-02-01T05:21:36;102108.79;;;21.94;42.58
75745;BME280;64359;51.366;-0.222;2023-02-01T05:22:40;102113.23;;;21.93;42.50
75745;BME280;64359;51.366;-0.222;2023-02-01T05:23:44;102111.60;;;21.93;42.54
75745;BME280;64359;51.366;-0.222;2023-02-01T05:25:15;102114.39;;;21.93;42.60
75745;BME280;64359;51.366;-0.222;2023-02-01T05:26:19;102117.30;;;21.92;42.60
75745;BME280;64359;51.366;-0.222;2023-02-01T05:27:24;102113.91;;;21.92;42.55
75745;BME280;64359;51.366;-0.222;2023-02-01T05:28:29;102110.52;;;21.92;42.56
75745;BME280;64359;51.366;-0.222;2023-02-01T05:29:33;102106.45;;;21.91;42.56
75745;BME280;64359;51.366;-0.222;2023-02-01T05:30:37;102106.92;;;21.92;42.52
75745;BME280;64359;51.366;-0.222;2023-02-01T05:31:43;102113.09;;;21.91;42.64
75745;BME280;64359;51.366;-0.222;2023-02-01T05:32:50;102111.15;;;21.91;42.51
75745;BME280;64359;51.366;-0.222;2023-02-01T05:33:55;102109.02;;;21.90;42.61
75745;BME280;64359;51.366;-0.222;2023-02-01T05:34:59;102111.77;;;21.90;42.57
75745;BME280;64359;51.366;-0.222;2023-02-01T05:36:05;102115.36;;;21.90;42.67
75745;BME280;64359;51.366;-0.222;2023-02-01T05:37:09;102112.91;;;21.91;42.53
75745;BME280;64359;51.366;-0.222;2023-02-01T05:38:13;102114.55;;;21.91;42.56
75745;BME280;64359;51.366;-0.222;2023-02-01T05:39:18;102108.61;;;21.91;42.58
75745;BME280;64359;51.366;-0.222;2023-02-01T05:40:22;102105.52;;;21.89;42.53
75745;BME280;64359;51.366;-0.222;2023-02-01T05:41:27;102107.77;;;21.89;42.62
75745;BME280;64359;51.366;-0.222;2023-02-01T05:42:31;102109.92;;;21.89;42.65
75745;BME280;64359;51.366;-0.222;2023-02-01T05:43:35;102108.44;;;21.89;42.63
75745;BME280;64359;51.366;-0.222;2023-02-01T05:44:40;102113.20;;;21.90;42.55
75745;BME280;64359;51.366;-0.222;2023-02-01T05:45:44;102115.02;;;21.90;42.55
75745;BME280;64359;51.366;-0.222;2023-02-01T05:46:49;102115.56;;;21.90;42.54
75745;BME280;64359;51.366;-0.222;2023-02-01T05:47:55;102118.35;;;21.91;42.57
75745;BME280;64359;51.366;-0.222;2023-02-01T05:48:59;102111.56;;;21.92;42.44
75745;BME280;64359;51.366;-0.222;2023-02-01T05:50:05;102110.95;;;21.91;42.56
75745;BME280;64359;51.366;-0.222;2023-02-01T05:51:10;102112.00;;;21.90;42.52